Tiempo atmosférico en la estación meteorológica de Estepona, Málaga (15 m.)



Fecha
DESCASC
Temp. máxima en grados centígrados (hora)
DESCASC
Temp. mínima en grados centígrados (hora)
DESCASC
Temp. media en grados centígrados
DESCASC
Racha de viento máxima en m/sg (hora)
DESCASC
Velocidad máxima media en intervalos de 10 minutos(hora)
DESCASC
Precipitaciones diarias en mm
DESCASC
Precipitaciones de 00:00 a 06:00 en mm
DESCASC
Precipitaciones de 06:00 a 12:00 en mm
DESCASC
Precipitaciones de 12:00 a 18:00 en mm
DESCASC
Precipitaciones de 18:00 a 24:00 en mm
DESCASC
13-06-2019 25.8 (15:30) 18.1 (03:40) 21.9 8.33 (11:10) 5 (11:10) 0 0 0 0 0
12-06-2019 24.1 (16:00) 17.9 (03:30) 21 15 (04:00) 9.17 (04:30) 0 0 0 0 0
11-06-2019 28.8 (16:50) 16.9 (07:10) 22.8 15.56 (11:20) 8.89 (11:10) 0 0 0 0 0
10-06-2019 31 (17:10) 17.4 (05:50) 24.2 16.67 (19:00) 9.44 (18:20) 0 0 0 0 0
09-06-2019 29.8 (17:30) 18.8 (00:00) 24.3 16.39 (15:40) 7.5 (15:00) 0 0 0 0 0
08-06-2019 25.4 (13:40) 15.9 (00:00) 20.6 10.83 (17:00) 6.67 (17:00) 0 0 0 0 0
07-06-2019 30.9 (17:50) 18.6 (00:00) 24.8 14.72 (15:50) 7.5 (03:30) 0 0 0 0 0
06-06-2019 29.1 (18:10) 14.7 (00:00) 21.9 13.61 (19:30) 6.67 (18:20) 0 0 0 0 0
05-06-2019 28.8 (15:20) 18.5 (00:00) 23.6 12.5 (00:20) 7.5 (00:20) 0 0 0 0 0
04-06-2019 33.6 (16:10) 14.9 (00:00) 24.2 14.72 (22:50) 9.17 (23:00) 0 0 0 0 0
03-06-2019 25.4 (16:50) 16.9 (00:00) 21.1 5.28 (01:00) 2.5 (01:00) 0 0 0 0 0
02-06-2019 25.5 (15:00) 18.1 (00:00) 21.8 7.5 (19:40) 5 (19:40) 0 0 0 0 0
01-06-2019 24.5 (16:10) 18.2 (00:00) 21.4 11.67 (12:50) 7.5 (12:50) 0 0 0 0 0
31-05-2019 23.4 (11:50) 18.1 (00:00) 20.8 13.89 (13:10) 9.44 (14:30) 0 0 0 0 0
30-05-2019 22.4 (17:50) 18.3 (00:00) 20.3 15 (12:50) 9.72 (11:40) 0 0 0 0 0
29-05-2019 25.2 (15:20) 17.8 (00:00) 21.5 10.56 (10:40) 6.67 (10:40) 0 0 0 0 0
28-05-2019 25.3 (15:30) 17.4 (00:00) 21.3 5 (14:30) 2.78 (14:50) 0 0 0 0 0
27-05-2019 27.6 (16:10) 15.3 (00:00) 21.5 3.89 (18:00) 2.22 (17:40) 0 0 0 0 0
26-05-2019 25.2 (15:10) 17.4 (00:00) 21.3 6.39 (09:20) 3.89 (09:50) 0 0 0 0 0
25-05-2019 24.2 (15:10) 17.9 (00:00) 21.1 15.28 (01:40) 10 (01:40) 0 0 0 0 0
24-05-2019 30.5 (16:20) 15.5 (00:00) 23 14.72 (17:10) 7.78 (14:10) 0 0 0 0 0
23-05-2019 25.4 (16:20) 16.6 (00:00) 21 5.56 (05:50) 2.5 (05:00) 0 0 0 0 0
22-05-2019 23.4 (15:50) 15.8 (00:00) 19.6 7.22 (12:30) 4.72 (12:30) 0 0 0 0 0
21-05-2019 30 (17:30) 15.6 (06:30) 22.8 11.11 (17:00) 5.83 (17:00) 0 0 0 0 0
20-05-2019 30.5 (17:40) 15.3 (07:30) 22.9 11.67 (19:00) 6.39 (13:40) 0 0 0 0 0
19-05-2019 28 (16:30) 16.6 (00:00) 22.3 15 (22:20) 7.22 (19:10) 0 0 0 0 0
18-05-2019 26.1 (15:50) 15.7 (00:00) 20.9 -- (--) -- (--) 0 0 0 0 0
17-05-2019 26.5 (19:00) 16.1 (00:00) 21.3 15.28 (20:20) 8.06 (19:40) 0 0 0 0 0

Gráficas

Temp. máximas Temp. mínimas Temp. medias Precipitaciones Rachas de viento máximas Velocidades máximas media en intervalos de 10 minutos

Datos horarios

Fecha y hora oficial Temperatura (ºC) Velocidad del viento (km/h) Dirección del viento Racha (km/h) Dirección de racha Precipitación (mm) Presión (hPa) Tendencia (hPa) Humedad (%)
2019-06-15 23:00:00 18.1 3 Sudoeste 7 Sudoeste 0 1015.4 0.9 71
2019-06-15 22:00:00 19 4 Sudoeste 14 Este 0 1015 0.2 67
2019-06-15 21:00:00 19.7 8 Este 16 Nordeste 0 1014.8 -0.2 64
2019-06-15 20:00:00 21.9 9 Este 18 Este 0 1014.5 -1 58
2019-06-15 19:00:00 23.5 11 Este 16 Nordeste 0 1014.8 -1.1 53
2019-06-15 18:00:00 24.3 5 Este 10 Sudeste 0 1015 -1.3 47
2019-06-15 17:00:00 25 4 Sudeste 12 Este 0 1015.5 -1.2 43
2019-06-15 16:00:00 24.2 5 Este 12 Este 0 1015.9 -1.4 46
2019-06-15 15:00:00 24.6 5 Este 11 Este 0 1016.3 -1.3 46
2019-06-15 14:00:00 24 5 Sudeste 11 Sur 0 1016.7 -0.8 46
2019-06-15 13:00:00 23.8 4 Sur 10 Sur 0 1017.3 0 45
2019-06-15 12:00:00 22.3 3 Sudoeste 9 Sur 0 1017.6 0.3 46
2019-06-15 11:00:00 21.3 4 Sur 11 Este 0 1017.5 0.5 44
2019-06-15 10:00:00 20.7 6 Este 13 Este 0 1017.3 0.6 47
2019-06-15 09:00:00 17.4 0 Calma 5 Sudoeste 0 1017.3 1 53
2019-06-15 08:00:00 14.9 0 Calma 4 Sur 0 1017 1 58
2019-06-15 07:00:00 14.4 0 Calma 8 Nordeste 0 1016.7 0.7 56
2019-06-15 06:00:00 14.5 3 Nordeste 8 Nordeste 0 1016.3 0 57
2019-06-15 05:00:00 15.1 2 Norte 6 Norte 0 1016 -0.3 53
2019-06-15 04:00:00 15.4 2 Sudoeste 5 Oeste 0 1016 -0.4 55
2019-06-15 03:00:00 15.5 2 Norte 6 Sudeste 0 1016.3 0.1 54
2019-06-15 02:00:00 16.2 2 Este 5 Nordeste 0 1016.3 0.3 53
2019-06-15 01:00:00 17 2 Sudeste 5 Este 0 1016.4 1.1 50
2019-06-15 00:00:00 19.2 4 Sur 28 Oeste 0 1016.2 0.7 41
2019-06-14 23:00:00 19.9 14 Oeste 44 Oeste 0 1016 0.7 39
2019-06-14 22:00:00 20.5 19 Oeste 44 Oeste 0 1015.3 0.3 37
2019-06-14 21:00:00 22.1 21 Oeste 45 Oeste 0 1015.5 0 33
2019-06-14 20:00:00 23.4 26 Oeste 45 Oeste 0 1015.3 -0.1 31
2019-06-14 19:00:00 24.1 23 Oeste 48 Oeste 0 1015 -0.3 28
2019-06-14 18:00:00 24.6 24 Oeste 48 Sudoeste 0 1015.5 0.1 27
2019-06-14 17:00:00 25.6 26 Oeste 59 Sudoeste 0 1015.4 -0.5 23
2019-06-14 16:00:00 25.4 24 Oeste 53 Sudoeste 0 1015.3 -0.7 23
2019-06-14 15:00:00 24.6 27 Oeste 52 Oeste 0 1015.4 -0.6 30
2019-06-14 14:00:00 23.9 25 Oeste 56 Oeste 0 1015.9 0 32
2019-06-14 13:00:00 23.1 21 Oeste 59 Oeste 0 1016 0.4 33
2019-06-14 12:00:00 22.3 19 Oeste 42 Oeste 0 1016 1 36
2019-06-14 11:00:00 20.4 16 Oeste 40 Sudoeste 0 1015.9 1.3 45
2019-06-14 10:00:00 19.5 19 Oeste 35 Oeste 0 1015.6 1.6 51
2019-06-14 09:00:00 18.4 15 Oeste 30 Oeste 0 1015 1.7 53
2019-06-14 08:00:00 17.9 14 Oeste 34 Oeste 0 1014.6 2 56
2019-06-14 07:00:00 17.5 18 Oeste 33 Oeste 0 1014 1.8 58
2019-06-14 06:00:00 17.8 12 Oeste 26 Oeste 0 1013.3 1.2 59
2019-06-14 05:00:00 18.6 14 Oeste 37 Oeste 0 1012.6 -0.1 61
2019-06-14 04:00:00 19.5 21 Oeste 37 Oeste 0 1012.2 -0.8 56
2019-06-14 03:00:00 18.6 9 Oeste 24 Oeste 0 1012.1 -0.7 65
2019-06-14 02:00:00 18.8 2 Sudoeste 10 Sudoeste 0 1012.7 0.6 74
2019-06-14 01:00:00 19.7 4 Sudoeste 12 Sudoeste 0 1013 2 73
2019-06-14 00:00:00 20.2 3 Sudoeste 9 Sudoeste 0 1012.8 3 71
2019-06-13 23:00:00 20.7 6 Sudoeste 13 Oeste 0 1012.1 2.4 69
2019-06-13 22:00:00 21 4 Sudoeste 8 Oeste 0 1011 1.7 65
2019-06-13 21:00:00 22.3 4 Sudoeste 10 Sudoeste 0 1009.8 0.3 60
2019-06-13 20:00:00 23.9 4 Sudoeste 8 Sudoeste 0 1009.7 0 54
2019-06-13 19:00:00 23.9 4 Este 9 Este 0 1009.3 -0.5 54
2019-06-13 18:00:00 24.6 5 Este 12 Este 0 1009.5 -0.6 53
2019-06-13 17:00:00 25.2 5 Este 12 Este 0 1009.7 -0.8 53
2019-06-13 16:00:00 25 6 Este 15 Este 0 1009.8 -0.5 53
2019-06-13 15:00:00 24.9 9 Este 18 Este 0 1010.1 -0.5 52
2019-06-13 14:00:00 24.4 11 Este 23 Este 0 1010.5 0.1 55
2019-06-13 13:00:00 24 14 Este 23 Este 0 1010.3 -0.3 55
2019-06-13 12:00:00 23 16 Este 30 Nordeste 0 1010.6 0.4 58
2019-06-13 11:00:00 23.5 16 Nordeste 29 Este 0 1010.4 0.3 56
2019-06-13 10:00:00 20.7 15 Este 23 Este 0 1010.6 0.9 66
2019-06-13 09:00:00 20.4 10 Nordeste 22 Este 0 1010.2 0.7 66
2019-06-13 08:00:00 19.8 9 Nordeste 22 Nordeste 0 1010.1 0.2 66
2019-06-13 07:00:00 19.3 8 Nordeste 20 Nordeste 0 1009.7 -0.5 65
2019-06-13 06:00:00 19.1 9 Nordeste 19 Nordeste 0 1009.5 -1.2 66
2019-06-13 05:00:00 18.3 7 Nordeste 20 Nordeste 0 1009.9 -1.1 70
2019-06-13 04:00:00 18.1 7 Nordeste 19 Este 0 1010.2 -1.1 71
2019-06-13 03:00:00 18.8 8 Nordeste 23 Nordeste 0 1010.7 -0.9 64
2019-06-13 02:00:00 18.6 8 Nordeste 19 Nordeste 0 1011 -0.6 67
2019-06-13 01:00:00 18.6 7 Nordeste 18 Este 0 1011.3 0.2 71
2019-06-13 00:00:00 18.7 8 Nordeste 24 Nordeste 0 1011.6 1.2 73
2019-06-12 23:00:00 19.1 14 Nordeste 27 Nordeste 0 1011.6 1.3 73
2019-06-12 22:00:00 19.1 10 Nordeste 22 Nordeste 0 1011.1 0.7 72
2019-06-12 21:00:00 20.1 13 Nordeste 24 Nordeste 0 1010.4 -0.5 65
2019-06-12 20:00:00 21.4 14 Este 24 Este 0 1010.3 -1.2 59
2019-06-12 19:00:00 22.6 15 Este 26 Nordeste 0 1010.4 -1.4 55
2019-06-12 18:00:00 23.4 18 Nordeste 29 Este 0 1010.9 -1.2 51
2019-06-12 17:00:00 23.7 16 Este 25 Nordeste 0 1011.5 -1.1 50
2019-06-12 16:00:00 24.1 19 Nordeste 28 Este 0 1011.8 -0.9 48
2019-06-12 15:00:00 21.9 15 Nordeste 28 Este 0 1012.1 -1 54
2019-06-12 14:00:00 21.6 22 Este 33 Este 0 1012.6 -0.3 54
2019-06-12 13:00:00 21.4 20 Nordeste 31 Este 0 1012.7 0.1 56
2019-06-12 12:00:00 20 18 Nordeste 36 Nordeste 0 1013.1 0.6 62
2019-06-12 11:00:00 19.9 22 Nordeste 37 Este 0 1012.9 0.9 61
2019-06-12 10:00:00 19.7 22 Nordeste 37 Este 0 1012.6 1 63
2019-06-12 09:00:00 19.3 20 Nordeste 42 Nordeste 0 1012.5 1.7 66
2019-06-12 08:00:00 19.1 21 Nordeste 40 Este 0 1012 1.5 68
2019-06-12 07:00:00 18.7 18 Nordeste 38 Este 0 1011.6 1.9 74
2019-06-12 06:00:00 18.5 19 Nordeste 44 Nordeste 0 1010.8 2.4 75
2019-06-12 05:00:00 18.1 25 Nordeste 52 Este 0 1010.5 2.2 75
2019-06-12 04:00:00 18.4 30 Este 54 Este 0 1009.7 1.2 73
2019-06-12 03:00:00 18.6 0 Calma 6 Nordeste 0 1008.4 -0.4 56
2019-06-12 02:00:00 20 2 Oeste 6 Oeste 0 1008.3 -0.3 49
2019-06-12 01:00:00 21.2 5 Oeste 13 Noroeste 0 1008.5 0.5 44
2019-06-12 00:00:00 21.1 5 Oeste 16 Noroeste 0 1008.8 0.8 47
2019-06-11 23:00:00 22 7 Sudoeste 29 Oeste 0 1008.6 0.7 47
2019-06-11 22:00:00 22.7 16 Oeste 45 Oeste 0 1008 0.1 45
2019-06-11 21:00:00 24.1 23 Oeste 51 Sudoeste 0 1008 0.1 42
2019-06-11 20:00:00 26.1 25 Oeste 52 Sudoeste 0 1007.9 0 35
2019-06-11 19:00:00 27.4 26 Oeste 49 Oeste 0 1007.9 -0.5 30
2019-06-11 18:00:00 28.1 27 Oeste 56 Sudoeste 0 1007.9 -0.9 29
2019-06-11 17:00:00 28.5 28 Oeste 50 Sudoeste 0 1007.9 -1.3 28
2019-06-11 16:00:00 28.6 30 Oeste 49 Sudoeste 0 1008.4 -1.3 28
2019-06-11 15:00:00 27.9 28 Sudoeste 51 Oeste 0 1008.8 -1.4 29
2019-06-11 14:00:00 26.3 31 Sudoeste 53 Oeste 0 1009.2 -1 32
2019-06-11 13:00:00 26.4 26 Sudoeste 48 Oeste 0 1009.7 -0.8 30
2019-06-11 12:00:00 23.8 28 Oeste 56 Oeste 0 1010.2 -0.2 32
2019-06-11 11:00:00 22.8 30 Oeste 53 Oeste 0 1010.2 0.6 31
2019-06-11 10:00:00 21.1 28 Oeste 51 Oeste 0 1010.5 1 41
2019-06-11 09:00:00 19.6 21 Oeste 44 Oeste 0 1010.4 0.8 56
2019-06-11 08:00:00 19.3 21 Oeste 38 Sudoeste 0 1009.6 -0.3 47
2019-06-11 07:00:00 17 3 Noroeste 10 Sudoeste 0 1009.5 -0.9 54
2019-06-11 06:00:00 17.7 5 Sudoeste 13 Nordeste 0 1009.6 -1.4 52
2019-06-11 05:00:00 17.8 3 Noroeste 8 Nordeste 0 1009.9 -1.7 49
2019-06-11 04:00:00 19.1 3 Sudoeste 10 Nordeste 0 1010.4 -2 43
2019-06-11 03:00:00 21.7 4 Nordeste 25 Noroeste 0 1011 -1.7 32
2019-06-11 02:00:00 22.5 10 Oeste 30 Oeste 0 1011.6 -1.1 29
2019-06-11 01:00:00 21.2 10 Oeste 27 Oeste 0 1012.4 0.2 37
2019-06-11 00:00:00 21 13 Oeste 26 Oeste 0 1012.7 0.7 41
2019-06-10 23:00:00 21.8 9 Oeste 24 Oeste 0 1012.7 0.6 36
2019-06-10 22:00:00 22.6 16 Oeste 36 Oeste 0 1012.2 0.1 36
2019-06-10 21:00:00 24 19 Oeste 50 Oeste 0 1012 -0.1 34
2019-06-10 20:00:00 26 22 Oeste 54 Oeste 0 1012.1 -0.4 30
2019-06-10 19:00:00 26.8 31 Oeste 60 Oeste 0 1012.1 -1 28
2019-06-10 18:00:00 28.7 29 Oeste 52 Sudoeste 0 1012.1 -1.7 26
2019-06-10 17:00:00 30.6 22 Oeste 49 Oeste 0 1012.5 -1.6 18
2019-06-10 16:00:00 30.5 21 Oeste 50 Oeste 0 1013.1 -1.8 19
2019-06-10 15:00:00 29.3 23 Oeste 57 Sudoeste 0 1013.8 -1.3 20
2019-06-10 14:00:00 28.4 23 Oeste 46 Sudoeste 0 1014.1 -1.5 22
2019-06-10 13:00:00 27.7 20 Oeste 42 Sudoeste 0 1014.9 -1 24
2019-06-10 12:00:00 25.7 25 Sudoeste 43 Oeste 0 1015.1 -0.5 32
2019-06-10 11:00:00 23.4 20 Sudoeste 40 Oeste 0 1015.6 0.2 42
2019-06-10 10:00:00 21.4 23 Oeste 42 Oeste 0 1015.9 0.7 47
2019-06-10 09:00:00 20.8 15 Oeste 30 Oeste 0 1015.6 0.6 46
2019-06-10 08:00:00 18.1 3 Oeste 8 Este 0 1015.4 0.6 53
2019-06-10 07:00:00 18.5 5 Sudoeste 14 Oeste 0 1015.2 0.4 46
2019-06-10 06:00:00 17.5 4 Noroeste 9 Nordeste 0 1015 0 51
2019-06-10 05:00:00 17.8 3 Norte 8 Norte 0 1014.8 -0.8 49
2019-06-10 04:00:00 18.1 4 Oeste 10 Nordeste 0 1014.8 -0.9 49
2019-06-10 03:00:00 19.8 4 Nordeste 12 Nordeste 0 1015 -0.7 41
2019-06-10 02:00:00 20.7 4 Nordeste 24 Sudeste 0 1015.6 -0.3 35
2019-06-10 01:00:00 22.6 5 Sudeste 50 Oeste 0 1015.7 0.3 30
2019-06-10 00:00:00 22.8 22 Oeste 50 Noroeste 0 1015.7 0.3 27
2019-06-09 23:00:00 21.6 22 Oeste 39 Oeste 0 1015.9 0.9 29
2019-06-09 22:00:00 22.8 18 Oeste 42 Oeste 0 1015.4 0.8 24
2019-06-09 21:00:00 24.6 22 Oeste 45 Oeste 0 1015.4 0.7 22
2019-06-09 20:00:00 27.2 24 Oeste 50 Sudoeste 0 1015 0 20
2019-06-09 19:00:00 29 22 Oeste 48 Oeste 0 1014.6 -0.7 16
2019-06-09 18:00:00 29.5 24 Oeste 48 Oeste 0 1014.7 -0.9 22
2019-06-09 17:00:00 29.1 23 Oeste 50 Oeste 0 1015 -1.1 26
2019-06-09 16:00:00 29.1 21 Oeste 59 Oeste 0 1015.3 -1.4 28
2019-06-09 15:00:00 28.6 27 Oeste 49 Sudoeste 0 1015.6 -1.7 30
2019-06-09 14:00:00 28.3 19 Oeste 44 Sudoeste 0 1016.1 -1.5 32
2019-06-09 13:00:00 24.9 15 Sudoeste 30 Sur 0 1016.7 -1.1 50
2019-06-09 12:00:00 23.1 10 Sudoeste 24 Sudoeste 0 1017.3 -0.6 59
2019-06-09 11:00:00 22.5 6 Sudoeste 17 Sur 0 1017.6 -0.1 64
2019-06-09 10:00:00 21.2 4 Sudoeste 8 Oeste 0 1017.8 0.4 70
2019-06-09 09:00:00 19.6 4 Oeste 7 Oeste 0 1017.9 0.5 75
2019-06-09 08:00:00 19 2 Oeste 6 Norte 0 1017.7 0.3 76
2019-06-09 07:00:00 18.9 3 Nordeste 9 Nordeste 0 1017.4 -0.1 75
2019-06-09 06:00:00 19.3 4 Nordeste 10 Este 0 1017.4 -0.6 74
2019-06-09 05:00:00 19 5 Nordeste 12 Nordeste 0 1017.4 -0.9 73
2019-06-09 04:00:00 19.3 5 Nordeste 12 Nordeste 0 1017.5 -1.2 72
2019-06-09 03:00:00 19.9 5 Nordeste 15 Este 0 1018 -0.7 70
2019-06-09 02:00:00 20.2 6 Nordeste 17 Norte 0 1018.3 -0.4 69
2019-06-09 01:00:00 20.2 7 Nordeste 18 Nordeste 0 1018.7 1 69
2019-06-09 00:00:00 19.9 6 Nordeste 16 Nordeste 0 1018.7 1.2 70
2019-06-08 23:00:00 19.9 6 Nordeste 16 Nordeste 0 1018.7 1.6 71
2019-06-08 22:00:00 20.4 8 Nordeste 21 Este 0 1017.7 0.5 69
2019-06-08 21:00:00 21.3 7 Nordeste 25 Nordeste 0 1017.5 0.1 66
2019-06-08 20:00:00 23.4 10 Nordeste 21 Este 0 1017.1 0 59
2019-06-08 19:00:00 23.1 15 Este 26 Este 0 1017.2 -0.1 58
2019-06-08 18:00:00 21.8 18 Este 36 Este 0 1017.4 -0.3 64
2019-06-08 17:00:00 21.7 24 Este 39 Este 0 1017.1 -0.9 64
2019-06-08 16:00:00 21.8 17 Este 35 Este 0 1017.3 -0.8 63
2019-06-08 15:00:00 23.3 16 Este 28 Este 0 1017.7 0.1 55
2019-06-08 14:00:00 25.3 12 Nordeste 35 Este 0 1018 1 47
2019-06-08 13:00:00 24.8 13 Nordeste 31 Nordeste 0 1018.1 1.4 49
2019-06-08 12:00:00 23.8 7 Este 14 Este 0 1017.6 1.1 49
2019-06-08 11:00:00 22.3 3 Sur 14 Sur 0 1017 1 56
2019-06-08 10:00:00 21.7 5 Sur 13 Sur 0 1016.7 0.9 59
2019-06-08 09:00:00 19.5 6 Oeste 12 Oeste 0 1016.5 1.2 69
2019-06-08 08:00:00 17.5 7 Oeste 12 Oeste 0 1016 1.1 73
2019-06-08 07:00:00 17.6 4 Nordeste 21 Este 0 1015.8 1 65
2019-06-08 06:00:00 16.4 8 Nordeste 28 Este 0 1015.3 0.4 62
2019-06-08 05:00:00 16.1 3 Oeste 5 Nordeste 0 1014.9 0 59
2019-06-08 04:00:00 16.2 2 Este 5 Este 0 1014.8 -0.3 54
2019-06-08 03:00:00 16.5 4 Este 10 Nordeste 0 1014.9 -0.3 52
2019-06-08 02:00:00 17.3 0 Calma 7 Este 0 1014.9 -0.1 64
2019-06-08 01:00:00 18 4 Nordeste 7 Nordeste 0 1015.1 0.7 63
2019-06-08 00:00:00 18.7 2 Oeste 9 Sudoeste 0 1015.2 1.1 64
2019-06-07 23:00:00 19.4 5 Sudoeste 13 Sudoeste 0 1015 1.2 61
2019-06-07 22:00:00 19.7 5 Nordeste 18 Nordeste 0 1014.4 0.9 59
2019-06-07 21:00:00 21.5 8 Nordeste 18 Nordeste 0 1014.1 0.8 53
2019-06-07 20:00:00 25 9 Nordeste 24 Sudoeste 0 1013.8 0.6 40
2019-06-07 19:00:00 25.3 9 Sudoeste 34 Sur 0 1013.5 -0.2 41
2019-06-07 18:00:00 30.8 16 Sudoeste 37 Oeste 0 1013.3 -0.9 26
2019-06-07 17:00:00 30.4 21 Oeste 40 Sudoeste 0 1013.2 -1.2 20
2019-06-07 16:00:00 30.6 16 Oeste 53 Sudoeste 0 1013.7 -1.2 22
2019-06-07 15:00:00 29.5 18 Sudoeste 38 Oeste 0 1014.2 -0.4 26
2019-06-07 14:00:00 28.3 17 Oeste 39 Sudoeste 0 1014.4 -0.2 28
2019-06-07 13:00:00 26.8 14 Oeste 49 Oeste 0 1014.9 0.2 30
2019-06-07 12:00:00 26.1 14 Oeste 29 Sudoeste 0 1014.6 0.1 33
2019-06-07 11:00:00 23.3 17 Sudoeste 33 Oeste 0 1014.6 0.7 50
2019-06-07 10:00:00 20.7 21 Sudoeste 38 Oeste 0 1014.7 1.2 63
2019-06-07 09:00:00 19.5 22 Oeste 39 Sudoeste 0 1014.5 1.8 65
2019-06-07 08:00:00 18.9 19 Sudoeste 31 Oeste 0 1013.9 1.4 64
2019-06-07 07:00:00 19.2 10 Oeste 38 Sudoeste 0 1013.5 1.5 54
2019-06-07 06:00:00 19 16 Sudoeste 39 Sudoeste 0 1012.7 0.5 56
2019-06-07 05:00:00 18.7 7 Sudoeste 45 Sudoeste 0 1012.5 0.1 53
2019-06-07 04:00:00 18.7 23 Oeste 45 Oeste 0 1012 -0.2 55
2019-06-07 03:00:00 18.9 22 Oeste 41 Oeste 0 1012.2 0.4 50
2019-06-07 02:00:00 19 18 Oeste 47 Oeste 0 1012.4 0.8 48
2019-06-07 01:00:00 19.3 15 Oeste 41 Oeste 0 1012.2 1.3 42
2019-06-07 00:00:00 19.1 17 Oeste 49 Oeste 0 1011.8 1.2 42
2019-06-06 23:00:00 19.4 23 Oeste 45 Oeste 0 1011.6 1.3 42
2019-06-06 22:00:00 20.8 23 Oeste 41 Oeste 0 1010.9 1.1 31
2019-06-06 21:00:00 23 15 Oeste 45 Oeste 0 1010.6 0.9 20
2019-06-06 20:00:00 25.9 20 Oeste 49 Oeste 0 1010.3 0.1 17
2019-06-06 19:00:00 27.6 20 Oeste 48 Oeste 0 1009.8 -1.1 18
2019-06-06 18:00:00 28.8 21 Oeste 41 Oeste 0 1009.7 -1.8 18
2019-06-06 17:00:00 24.7 16 Sudoeste 37 Sudoeste 0 1010.2 -1.8 41
2019-06-06 16:00:00 24.6 19 Sudoeste 39 Sur 0 1010.9 -1.1 42
2019-06-06 15:00:00 23.5 19 Sudoeste 37 Sudoeste 0 1011.5 -0.6 45
2019-06-06 14:00:00 23.6 19 Sudoeste 36 Sudoeste 0 1012 -0.6 43
2019-06-06 13:00:00 23.9 15 Sudoeste 31 Sudoeste 0 1012 -0.7 43
2019-06-06 12:00:00 25.3 6 Este 9 Este 0 1012.1 -0.5 29
2019-06-06 11:00:00 21.8 3 Sudoeste 12 Sur 0 1012.6 0.2 40
2019-06-06 10:00:00 20.3 3 Sur 8 Sur 0 1012.7 0.4 41
2019-06-06 09:00:00 17.9 3 Sudoeste 5 Oeste 0 1012.6 0.5 55
2019-06-06 08:00:00 15.9 0 Calma 5 Este 0 1012.4 0.3 65
2019-06-06 07:00:00 14.9 0 Calma 5 Este 0 1012.3 0 63
2019-06-06 06:00:00 15.4 2 Oeste 8 Sudeste 0 1012.1 -0.7 63
2019-06-06 05:00:00 15.8 0 Calma 9 Este 0 1012.1 -1.3 55
2019-06-06 04:00:00 16.4 3 Nordeste 7 Nordeste 0 1012.3 -1.4 50
2019-06-06 03:00:00 16.7 0 Calma 5 Oeste 0 1012.8 -1.1 54
2019-06-06 02:00:00 17.7 3 Nordeste 6 Nordeste 0 1013.4 -0.2 53
2019-06-06 01:00:00 19.4 3 Nordeste 20 Oeste 0 1013.7 0.6 42
2019-06-06 00:00:00 19.8 10 Oeste 27 Oeste 0 1013.9 1.4 45
2019-06-05 23:00:00 20.2 14 Oeste 37 Oeste 0 1013.6 1.6 46
2019-06-05 22:00:00 21.1 18 Oeste 39 Oeste 0 1013.1 1.1 43
2019-06-05 21:00:00 23.5 22 Oeste 39 Oeste 0 1012.5 0.4 34
2019-06-05 20:00:00 26.5 13 Oeste 35 Oeste 0 1012 -0.1 20
2019-06-05 19:00:00 27.9 15 Oeste 41 Oeste 0 1012 -0.4 16
2019-06-05 18:00:00 28.2 16 Oeste 45 Oeste 0 1012.1 -0.7 17
2019-06-05 17:00:00 28 17 Oeste 40 Oeste 0 1012.1 -1.3 19
2019-06-05 16:00:00 28.3 19 Oeste 42 Sudoeste 0 1012.4 -1.5 18
2019-06-05 15:00:00 27.9 10 Oeste 69 Oeste 0 1012.8 -0.9 19
2019-06-05 14:00:00 27.9 8 Sudoeste 27 Sudoeste 0 1013.4 -0.2 18
2019-06-05 13:00:00 26.9 7 Sudoeste 28 Sudoeste 0 1013.9 0.5 19
2019-06-05 12:00:00 25.3 6 Sudoeste 21 Sur 0 1013.7 0.7 21
2019-06-05 11:00:00 23.5 8 Sudeste 25 Este 0 1013.6 0.9 25
2019-06-05 10:00:00 21.4 8 Sur 39 Sudoeste 0 1013.4 1.4 30
2019-06-05 09:00:00 19.6 11 Sudoeste 30 Sudoeste 0 1013 1.4 39
2019-06-05 08:00:00 18.6 7 Sudoeste 30 Oeste 0 1012.7 1.5 44
2019-06-05 07:00:00 18.5 16 Oeste 31 Sudoeste 0 1012 0.6 49
2019-06-05 06:00:00 20 16 Oeste 36 Oeste 0 1011.6 -0.2 46
2019-06-05 05:00:00 19.7 19 Oeste 37 Oeste 0 1011.2 -0.7 55
2019-06-05 04:00:00 19.8 18 Oeste 33 Oeste 0 1011.4 -0.1 66
2019-06-05 03:00:00 20.1 17 Oeste 35 Oeste 0 1011.8 0.5 68
2019-06-05 02:00:00 20.2 18 Sudoeste 39 Sudoeste 0 1011.9 1.3 68
2019-06-05 01:00:00 20.4 24 Oeste 45 Oeste 0 1011.5 1.9 65
2019-06-05 00:00:00 21.2 23 Oeste 46 Oeste 0 1011.3 2.1 57
2019-06-04 23:00:00 21.7 33 Oeste 53 Sudoeste 0 1010.6 1.9 56
2019-06-04 22:00:00 22.9 26 Oeste 46 Sudoeste 0 1009.6 0.8 53
2019-06-04 21:00:00 25.7 20 Oeste 51 Oeste 0 1009.2 0.4 38
2019-06-04 20:00:00 28.7 23 Oeste 49 Oeste 0 1008.7 -0.6 29
2019-06-04 19:00:00 30.3 26 Sudoeste 48 Oeste 0 1008.8 -1 27
2019-06-04 18:00:00 31.8 27 Oeste 50 Sudoeste 0 1008.8 -1.8 24
2019-06-04 17:00:00 32.9 26 Sudoeste 44 Oeste 0 1009.3 -2 23
2019-06-04 16:00:00 33.4 22 Oeste 40 Sudoeste 0 1009.8 -2.2 25
2019-06-04 15:00:00 32.4 21 Sudoeste 37 Oeste 0 1010.6 -1.9 28
2019-06-04 14:00:00 31.2 23 Sudoeste 40 Oeste 0 1011.3 -1.3 26
2019-06-04 13:00:00 26.6 5 Sur 15 Sudoeste 0 1012 -0.9 39
2019-06-04 12:00:00 23.7 6 Sudeste 18 Sudoeste 0 1012.5 -0.3 45
2019-06-04 11:00:00 22.4 10 Sur 28 Sur 0 1012.6 -0.3 52
2019-06-04 10:00:00 20.6 3 Sur 6 Sur 0 1012.9 0.2 58
2019-06-04 09:00:00 19.3 3 Este 6 Sudeste 0 1012.8 0.3 57
2019-06-04 08:00:00 15.8 0 Calma 3 Norte 0 1012.9 0.3 69
2019-06-04 07:00:00 15 2 Noroeste 4 Noroeste 0 1012.7 -0.6 67
2019-06-04 06:00:00 15 2 Oeste 4 Noroeste 0 1012.5 -1.4 71
2019-06-04 05:00:00 15.6 3 Oeste 6 Sudoeste 0 1012.6 -1.9 73
2019-06-04 04:00:00 15.7 3 Norte 8 Nordeste 0 1013.3 -1.9 76
2019-06-04 03:00:00 16.6 0 Calma 4 Nordeste 0 1013.9 -1.6 80
2019-06-04 02:00:00 17.2 3 Este 5 Noroeste 0 1014.5 -0.8 79
2019-06-04 01:00:00 17.5 2 Noroeste 5 Noroeste 0 1015.2 0.3 79
2019-06-04 00:00:00 18.2 2 Nordeste 8 Oeste 0 1015.5 0.4 78
2019-06-03 23:00:00 18.8 3 Sudoeste 7 Sudoeste 0 1015.3 0.3 75
2019-06-03 22:00:00 20 3 Sudeste 6 Oeste 0 1014.9 -0.4 71
2019-06-03 21:00:00 21.9 4 Sudoeste 7 Sur 0 1015.1 -0.6 64
2019-06-03 20:00:00 23.7 3 Sudeste 10 Sur 0 1015 -1 58
2019-06-03 19:00:00 24.2 4 Sudeste 11 Sur 0 1015.3 -1.1 57
2019-06-03 18:00:00 24.6 5 Sudeste 10 Sur 0 1015.7 -1.3 56
2019-06-03 17:00:00 24.9 5 Sudeste 13 Sudeste 0 1016 -1.4 55
2019-06-03 16:00:00 24.8 6 Sudeste 12 Sudeste 0 1016.4 -1.4 56
2019-06-03 15:00:00 24.9 6 Sur 12 Sur 0 1017 -0.7 55
2019-06-03 14:00:00 24.1 5 Sudeste 11 Sudeste 0 1017.4 -0.2 56
2019-06-03 13:00:00 24.1 5 Sur 12 Sudeste 0 1017.8 0.1 58
2019-06-03 12:00:00 23 4 Sur 10 Sur 0 1017.7 0.4 62
2019-06-03 11:00:00 22 4 Sudeste 8 Sudeste 0 1017.6 0.6 64
2019-06-03 10:00:00 20.8 3 Sudoeste 8 Sudoeste 0 1017.7 1 68
2019-06-03 09:00:00 19.3 5 Sudoeste 9 Oeste 0 1017.3 1 61
2019-06-03 08:00:00 17.4 0 Calma 9 Oeste 0 1017 0.4 63
2019-06-03 07:00:00 17.1 8 Oeste 13 Oeste 0 1016.7 -0.3 61
2019-06-03 06:00:00 16.9 4 Oeste 9 Nordeste 0 1016.3 -1.3 57
2019-06-03 05:00:00 17.6 4 Nordeste 12 Este 0 1016.6 -1.5 48
2019-06-03 04:00:00 18.3 4 Nordeste 12 Nordeste 0 1017 -1.2 32
2019-06-03 03:00:00 17.5 4 Nordeste 9 Este 0 1017.6 -0.9 43
2019-06-03 02:00:00 19.4 4 Este 15 Nordeste 0 1018.1 -0.1 42
2019-06-03 01:00:00 19 9 Nordeste 19 Nordeste 0 1018.2 0.7 33
2019-06-03 00:00:00 18.4 6 Nordeste 11 Nordeste 0 1018.5 1.3 52
2019-06-02 23:00:00 18.3 6 Nordeste 12 Este 0 1018.2 1.2 55
2019-06-02 22:00:00 19.7 8 Este 14 Este 0 1017.5 0.5 63
2019-06-02 21:00:00 21 11 Este 20 Este 0 1017.2 -0.3 55
2019-06-02 20:00:00 22.7 14 Este 27 Este 0 1017 -0.8 48
2019-06-02 19:00:00 23.7 14 Este 21 Este 0 1017 -1 44
2019-06-02 18:00:00 24.4 9 Este 17 Este 0 1017.5 -0.9 45
2019-06-02 17:00:00 25.2 8 Este 20 Este 0 1017.8 -1.1 40
2019-06-02 16:00:00 25.2 10 Este 21 Este 0 1018 -1.1 40
2019-06-02 15:00:00 25.3 9 Este 21 Este 0 1018.4 -0.8 40
2019-06-02 14:00:00 24.6 13 Este 23 Nordeste 0 1018.9 -0.3 41
2019-06-02 13:00:00 24.9 11 Este 21 Este 0 1019.1 0.3 43
2019-06-02 12:00:00 24.1 8 Este 18 Este 0 1019.2 0.8 47
2019-06-02 11:00:00 22.8 8 Este 23 Este 0 1019.2 0.9 55
2019-06-02 10:00:00 22.1 15 Este 25 Este 0 1018.8 0.7 44
2019-06-02 09:00:00 22.3 13 Este 23 Este 0 1018.4 0.3 38
2019-06-02 08:00:00 19.9 9 Nordeste 23 Nordeste 0 1018.3 0.2 37
2019-06-02 07:00:00 19.4 9 Nordeste 22 Norte 0 1018.1 -0.5 38
2019-06-02 06:00:00 20 10 Nordeste 25 Nordeste 0 1018.1 -1 34
2019-06-02 05:00:00 20.1 11 Nordeste 22 Nordeste 0 1018.1 -1.4 33
2019-06-02 04:00:00 20.1 10 Nordeste 24 Nordeste 0 1018.6 -1.1 35
2019-06-02 03:00:00 20 9 Nordeste 26 Nordeste 0 1019.1 -0.7 36
2019-06-02 02:00:00 19.8 9 Nordeste 23 Nordeste 0 1019.5 0 36
2019-06-02 01:00:00 19.7 7 Nordeste 21 Nordeste 0 1019.7 0.9 43
2019-06-02 00:00:00 20 8 Nordeste 21 Nordeste 0 1019.8 1.4 38
2019-06-01 23:00:00 19.9 8 Nordeste 20 Nordeste 0 1019.5 1.4 42
2019-06-01 22:00:00 19.9 9 Nordeste 28 Este 0 1018.8 0.6 48
2019-06-01 21:00:00 20.7 9 Nordeste 23 Este 0 1018.4 -0.1 57
2019-06-01 20:00:00 21.8 17 Este 29 Este 0 1018.1 -0.8 56
2019-06-01 19:00:00 23.2 16 Este 28 Este 0 1018.2 -1.3 52
2019-06-01 18:00:00 22.7 18 Este 30 Este 0 1018.5 -1.2 52
2019-06-01 17:00:00 23.1 15 Este 36 Este 0 1018.9 -1.1 49
2019-06-01 16:00:00 24.3 19 Este 40 Este 0 1019.5 -0.9 45
2019-06-01 15:00:00 23.6 24 Este 35 Este 0 1019.7 -0.7 45
2019-06-01 14:00:00 23.2 22 Este 36 Este 0 1020 -0.4 45
2019-06-01 13:00:00 23.2 25 Este 42 Este 0 1020.4 0.4 45
2019-06-01 12:00:00 22.3 17 Este 31 Este 0 1020.4 0.5 52
2019-06-01 11:00:00 21.4 13 Este 24 Este 0 1020.4 0.8 64
2019-06-01 10:00:00 20.9 17 Este 29 Este 0 1020 0.6 63
2019-06-01 09:00:00 21.3 12 Este 30 Este 0 1019.9 0.7 53
2019-06-01 08:00:00 19 8 Nordeste 23 Nordeste 0 1019.6 0.1 43
2019-06-01 07:00:00 18.3 11 Nordeste 28 Este 0 1019.4 -0.4 50
2019-06-01 06:00:00 18.5 14 Nordeste 29 Nordeste 0 1019.2 -0.7 55
2019-06-01 05:00:00 18.4 13 Nordeste 28 Nordeste 0 1019.5 -1.1 59
2019-06-01 04:00:00 18.4 9 Nordeste 22 Este 0 1019.8 -1.1 59
2019-06-01 03:00:00 18.5 8 Nordeste 27 Nordeste 0 1019.9 -1.1 60
2019-06-01 02:00:00 18.8 11 Nordeste 24 Este 0 1020.6 0 60
2019-06-01 01:00:00 18.8 7 Nordeste 21 Nordeste 0 1020.9 1 59
2019-06-01 00:00:00 18.9 7 Nordeste 33 Este 0 1021 1.5 60
2019-05-31 23:00:00 19.4 9 Nordeste 31 Este 0 1020.6 1.4 60
2019-05-31 22:00:00 19.8 13 Nordeste 32 Nordeste 0 1019.9 0.6 58
2019-05-31 21:00:00 20.3 10 Nordeste 31 Este 0 1019.5 -0.3 59
2019-05-31 20:00:00 21.6 20 Este 48 Este 0 1019.2 -1.2 54
2019-05-31 19:00:00 21.9 23 Este 41 Este 0 1019.3 -1.5 51
2019-05-31 18:00:00 22.5 27 Este 44 Este 0 1019.8 -1 48
2019-05-31 17:00:00 22.7 25 Este 39 Este 0 1020.4 -0.8 52
2019-05-31 16:00:00 23 27 Este 48 Este 0 1020.8 -0.7 51
2019-05-31 15:00:00 22.9 31 Este 50 Este 0 1020.8 -0.7 48
2019-05-31 14:00:00 22.5 29 Este 50 Este 0 1021.2 -0.1 47
2019-05-31 13:00:00 22.9 29 Este 44 Este 0 1021.5 0.4 46
2019-05-31 12:00:00 23.3 28 Este 45 Este 0 1021.5 0.6 43
2019-05-31 11:00:00 22.9 26 Nordeste 42 Este 0 1021.3 0.3 45
2019-05-31 10:00:00 21.5 23 Este 39 Este 0 1021.1 0.5 50
2019-05-31 09:00:00 21 19 Nordeste 36 Este 0 1020.9 0.4 48
2019-05-31 08:00:00 18.6 12 Nordeste 35 Nordeste 0 1021 0.4 58
2019-05-31 07:00:00 18.2 12 Nordeste 31 Nordeste 0 1020.6 -0.2 54
2019-05-31 06:00:00 18.1 10 Nordeste 27 Nordeste 0 1020.5 -0.8 52
2019-05-31 05:00:00 18.3 10 Nordeste 28 Nordeste 0 1020.6 -1.1 55
2019-05-31 04:00:00 18.3 9 Nordeste 23 Este 0 1020.8 -1.3 51
2019-05-31 03:00:00 18.4 9 Nordeste 35 Este 0 1021.3 -1.2 54
2019-05-31 02:00:00 18.9 9 Nordeste 31 Este 0 1021.7 -0.6 51
2019-05-31 01:00:00 19.9 19 Nordeste 41 Este 0 1022.1 0.5 52
2019-05-31 00:00:00 18.8 10 Nordeste 32 Este 0 1022.5 1.3 47
2019-05-30 23:00:00 19.3 19 Este 31 Este 0 1022.3 1.2 62
2019-05-30 22:00:00 19.6 20 Este 40 Este 0 1021.6 0.2 65
2019-05-30 21:00:00 19.9 29 Este 44 Este 0 1021.2 -0.4 59
2019-05-30 20:00:00 21.1 26 Este 42 Nordeste 0 1021.1 -0.9 60
2019-05-30 19:00:00 21.9 25 Este 41 Este 0 1021.4 -0.9 57
2019-05-30 18:00:00 22.3 28 Este 46 Este 0 1021.6 -0.7 57
2019-05-30 17:00:00 21.7 33 Este 46 Este 0 1022 -0.4 60
2019-05-30 16:00:00 21.6 28 Este 47 Este 0 1022.3 -0.5 58
2019-05-30 15:00:00 21.7 32 Este 49 Este 0 1022.3 -0.4 56
2019-05-30 14:00:00 21.5 33 Este 53 Este 0 1022.4 -0.2 59
2019-05-30 13:00:00 21.4 35 Este 54 Este 0 1022.8 0.2 61
2019-05-30 12:00:00 21.2 33 Este 49 Este 0 1022.7 0.8 63
2019-05-30 11:00:00 21.5 29 Este 47 Nordeste 0 1022.6 1 62
2019-05-30 10:00:00 21.1 27 Nordeste 45 Este 0 1022.6 1.5 62
2019-05-30 09:00:00 20.4 26 Nordeste 45 Este 0 1021.9 1 60
2019-05-30 08:00:00 19.2 21 Nordeste 39 Nordeste 0 1021.6 0.6 60
2019-05-30 07:00:00 18.4 12 Nordeste 29 Este 0 1021.1 0.1 54
2019-05-30 06:00:00 18.8 14 Nordeste 36 Nordeste 0 1020.9 0 54
2019-05-30 05:00:00 18.9 13 Nordeste 35 Nordeste 0 1021 -0.2 46
2019-05-30 04:00:00 19 12 Nordeste 29 Este 0 1021 -0.4 47
2019-05-30 03:00:00 19 13 Nordeste 33 Este 0 1020.9 -0.4 52
2019-05-30 02:00:00 19.3 12 Nordeste 26 Nordeste 0 1021.2 0.7 53
2019-05-30 01:00:00 19.2 11 Nordeste 29 Este 0 1021.4 2 58
2019-05-30 00:00:00 19.4 12 Nordeste 36 Este 0 1021.3 2.7 61
2019-05-29 23:00:00 19.6 14 Nordeste 38 Este 0 1020.5 2.5 58
2019-05-29 22:00:00 19.9 19 Nordeste 37 Este 0 1019.4 1.3 62
2019-05-29 21:00:00 20.5 14 Nordeste 30 Este 0 1018.6 0.5 60
2019-05-29 20:00:00 22.4 17 Este 30 Este 0 1018 -0.5 56
2019-05-29 19:00:00 23.3 17 Este 27 Nordeste 0 1018.1 -0.7 48
2019-05-29 18:00:00 24.1 15 Nordeste 30 Este 0 1018.1 -0.8 50
2019-05-29 17:00:00 24.4 14 Este 30 Este 0 1018.5 -0.7 50
2019-05-29 16:00:00 25.2 18 Este 27 Nordeste 0 1018.8 -0.5 45
2019-05-29 15:00:00 24.7 15 Este 28 Este 0 1018.9 -0.1 48
2019-05-29 14:00:00 23.9 19 Este 31 Este 0 1019.2 0.2 49
2019-05-29 13:00:00 23.6 23 Este 34 Este 0 1019.3 1 47
2019-05-29 12:00:00 24 21 Este 35 Este 0 1019 1.3 47
2019-05-29 11:00:00 23.3 22 Este 38 Este 0 1019 1.9 45
2019-05-29 10:00:00 22.6 21 Este 35 Este 0 1018.3 2 59
2019-05-29 09:00:00 22.3 18 Nordeste 29 Este 0 1017.7 1.9 59
2019-05-29 08:00:00 20.5 10 Nordeste 26 Este 0 1017.1 1.9 56
2019-05-29 07:00:00 19.4 8 Nordeste 19 Nordeste 0 1016.3 1.7 58
2019-05-29 06:00:00 20.1 10 Nordeste 28 Este 0 1015.8 1.8 53
2019-05-29 05:00:00 19.6 11 Nordeste 29 Nordeste 0 1015.2 1.4 58
2019-05-29 04:00:00 18.2 6 Nordeste 24 Este 0 1014.6 1.2 76
2019-05-29 03:00:00 18.6 2 Nordeste 8 Este 0 1014 0.8 78
2019-05-29 02:00:00 18.7 0 Calma 5 Sudoeste 0 1013.8 0.9 80
2019-05-29 01:00:00 19.2 2 Nordeste 12 Nordeste 0 1013.4 1.4 79
2019-05-29 00:00:00 19.9 6 Nordeste 13 Este 0 1013.2 1.6 79
2019-05-28 23:00:00 19.9 6 Nordeste 13 Este 0 1012.9 1.7 78
2019-05-28 22:00:00 20.4 6 Nordeste 13 Nordeste 0 1012 0.8 74
2019-05-28 21:00:00 21.5 8 Nordeste 14 Este 0 1011.6 0.3 70
2019-05-28 20:00:00 23.5 8 Este 15 Este 0 1011.2 0 64
2019-05-28 19:00:00 24 10 Este 17 Este 0 1011.2 -0.3 63
2019-05-28 18:00:00 24.8 8 Este 14 Este 0 1011.3 -0.3 60
2019-05-28 17:00:00 25.1 8 Este 14 Este 0 1011.2 -0.4 60
2019-05-28 16:00:00 25 8 Este 17 Este 0 1011.5 0.1 60
2019-05-28 15:00:00 24.9 10 Este 18 Este 0 1011.6 0.5 61
2019-05-28 14:00:00 24.9 6 Este 12 Sudeste 0 1011.6 0.9 59
2019-05-28 13:00:00 24.7 6 Este 13 Este 0 1011.4 1 60
2019-05-28 12:00:00 24.3 6 Este 15 Este 0 1011.1 1.1 59
2019-05-28 11:00:00 23.1 5 Este 10 Sudeste 0 1010.7 0.8 59
2019-05-28 10:00:00 21.8 3 Sur 7 Sur 0 1010.4 1.1 66
2019-05-28 09:00:00 19.3 4 Sudoeste 6 Oeste 0 1010 0.7 71
2019-05-28 08:00:00 17.7 2 Este 5 Sudeste 0 1009.9 0.7 74
2019-05-28 07:00:00 17.8 2 Sudoeste 6 Noroeste 0 1009.3 0 73
2019-05-28 06:00:00 17.6 3 Este 6 Sudeste 0 1009.3 -0.3 76
2019-05-28 05:00:00 17.7 0 Calma 5 Sudoeste 0 1009.2 -0.9 74
2019-05-28 04:00:00 18.3 2 Nordeste 7 Nordeste 0 1009.3 -1.2 72
2019-05-28 03:00:00 18.6 2 Nordeste 10 Nordeste 0 1009.6 -0.8 71
2019-05-28 02:00:00 19 4 Nordeste 13 Este 0 1010.1 0.1 72
2019-05-28 01:00:00 19.2 5 Nordeste 13 Este 0 1010.5 0.5 68
2019-05-28 00:00:00 19.1 4 Nordeste 8 Este 0 1010.4 0.2 66
2019-05-27 23:00:00 20 3 Sudoeste 7 Sudoeste 0 1010 0 63
2019-05-27 22:00:00 21.1 4 Sudoeste 7 Sudoeste 0 1010 -0.3 57
2019-05-27 21:00:00 23.1 3 Sudoeste 7 Sudoeste 0 1010.2 -0.4 48
2019-05-27 20:00:00 25.3 3 Sudoeste 8 Sudoeste 0 1010 -0.7 39
2019-05-27 19:00:00 25.7 3 Sur 13 Sudoeste 0 1010.3 -1 45
2019-05-27 18:00:00 26.6 8 Sudoeste 14 Sudoeste 0 1010.6 -1.3 47
2019-05-27 17:00:00 26.2 5 Sudoeste 10 Sudoeste 0 1010.7 -1.9 47
2019-05-27 16:00:00 27.4 4 Sur 10 Sudeste 0 1011.3 -1.7 41
2019-05-27 15:00:00 26.9 4 Sur 9 Sudoeste 0 1011.9 -1.4 41
2019-05-27 14:00:00 26.3 4 Sur 10 Sur 0 1012.6 -0.8 42
2019-05-27 13:00:00 24.7 4 Sur 9 Sur 0 1013 -0.5 45
2019-05-27 12:00:00 22.6 4 Sudoeste 11 Sudoeste 0 1013.3 0.3 51
2019-05-27 11:00:00 21.7 5 Sudoeste 9 Sudoeste 0 1013.4 0.5 58
2019-05-27 10:00:00 19.8 2 Sur 6 Sur 0 1013.5 0.8 55
2019-05-27 09:00:00 17.7 2 Sudoeste 5 Sur 0 1013 0.4 67
2019-05-27 08:00:00 15.7 2 Sudoeste 4 Sur 0 1012.9 0.2 75
2019-05-27 07:00:00 15.4 0 Calma 4 Sur 0 1012.7 -0.6 73
2019-05-27 06:00:00 15.7 0 Calma 5 Oeste 0 1012.6 -1.1 69
2019-05-27 05:00:00 15.8 3 Noroeste 7 Noroeste 0 1012.7 -1.6 71
2019-05-27 04:00:00 16 3 Sudoeste 5 Sudoeste 0 1013.3 -1.4 73
2019-05-27 03:00:00 16.3 0 Calma 4 Este 0 1013.7 -1.3 73
2019-05-27 02:00:00 16.9 2 Sudoeste 4 Sudoeste 0 1014.3 -0.5 72
2019-05-27 01:00:00 17.3 2 Este 5 Este 0 1014.7 0.3 68
2019-05-27 00:00:00 17.9 4 Este 6 Sudoeste 0 1015 0.9 71
2019-05-26 23:00:00 18.8 3 Sudoeste 7 Oeste 0 1014.8 0.9 66
2019-05-26 22:00:00 20.2 4 Sudoeste 15 Oeste 0 1014.4 0.4 60
2019-05-26 21:00:00 21.5 6 Oeste 10 Oeste 0 1014.1 -0.3 59
2019-05-26 20:00:00 23.6 3 Sur 8 Este 0 1013.9 -1 53
2019-05-26 19:00:00 24 4 Sudeste 9 Este 0 1014 -1.6 50
2019-05-26 18:00:00 24.3 5 Este 10 Este 0 1014.4 -1.6 51
2019-05-26 17:00:00 24.6 5 Este 10 Este 0 1014.9 -1.7 48
2019-05-26 16:00:00 24 6 Este 12 Este 0 1015.6 -1.3 50
2019-05-26 15:00:00 24.8 6 Este 14 Este 0 1016 -1 47
2019-05-26 14:00:00 24.2 6 Este 13 Este 0 1016.6 -0.3 45
2019-05-26 13:00:00 23.8 7 Este 16 Este 0 1016.9 0.1 45
2019-05-26 12:00:00 23 9 Este 16 Este 0 1017 0.2 47
2019-05-26 11:00:00 21.8 10 Este 23 Este 0 1016.9 0.2 44
2019-05-26 10:00:00 21.5 13 Este 23 Este 0 1016.8 0.3 40
2019-05-26 09:00:00 21.5 9 Nordeste 20 Nordeste 0 1016.8 0.6 35
2019-05-26 08:00:00 18.8 9 Nordeste 20 Nordeste 0 1016.7 0.3 43
2019-05-26 07:00:00 18 10 Nordeste 18 Nordeste 0 1016.5 -0.5 45
2019-05-26 06:00:00 17.9 10 Nordeste 19 Nordeste 0 1016.2 -1 50
2019-05-26 05:00:00 18 9 Nordeste 18 Nordeste 0 1016.4 -1 52
2019-05-26 04:00:00 18.2 8 Nordeste 17 Nordeste 0 1017 -0.8 56
2019-05-26 03:00:00 18.3 9 Nordeste 17 Nordeste 0 1017.2 -0.5 60
2019-05-26 02:00:00 18 10 Nordeste 20 Nordeste 0 1017.4 0.1 66
2019-05-26 01:00:00 17.4 5 Nordeste 21 Este 0 1017.8 1.1 78
2019-05-26 00:00:00 17.9 14 Este 21 Este 0 1017.7 1.6 78
2019-05-25 23:00:00 18.3 8 Nordeste 18 Este 0 1017.3 1.7 76
2019-05-25 22:00:00 18.7 10 Nordeste 15 Este 0 1016.7 1 76
2019-05-25 21:00:00 19.7 9 Este 13 Este 0 1016.1 0.4 70
2019-05-25 20:00:00 21.6 7 Este 13 Este 0 1015.6 0.1 63
2019-05-25 19:00:00 22.8 6 Este 13 Nordeste 0 1015.7 0.1 57
2019-05-25 18:00:00 23 7 Este 13 Este 0 1015.7 0 57
2019-05-25 17:00:00 23.4 6 Este 14 Este 0 1015.5 -0.6 54
2019-05-25 16:00:00 22.9 7 Este 13 Este 0 1015.6 -0.4 54
2019-05-25 15:00:00 23.8 6 Este 14 Este 0 1015.7 -0.2 50
2019-05-25 14:00:00 23.2 8 Este 16 Este 0 1016.1 0.5 52
2019-05-25 13:00:00 22.6 11 Este 16 Este 0 1016 0.7 51
2019-05-25 12:00:00 21.8 12 Este 18 Este 0 1015.9 1 53
2019-05-25 11:00:00 21.3 10 Este 18 Este 0 1015.6 1 57
2019-05-25 10:00:00 20.2 11 Este 23 Este 0 1015.3 1.2 61
2019-05-25 09:00:00 20.1 15 Nordeste 21 Nordeste 0 1014.9 1 61
2019-05-25 08:00:00 18.9 8 Nordeste 23 Nordeste 0 1014.6 0.9 66
2019-05-25 07:00:00 18.6 14 Nordeste 29 Nordeste 0 1014.1 0.7 69
2019-05-25 06:00:00 18.7 13 Nordeste 31 Nordeste 0 1013.9 0.7 68
2019-05-25 05:00:00 18.7 19 Nordeste 36 Nordeste 0 1013.7 0.7 70
2019-05-25 04:00:00 18.8 20 Nordeste 37 Este 0 1013.4 0.8 70
2019-05-25 03:00:00 18.9 22 Nordeste 48 Este 0 1013.2 3.2 70
2019-05-25 02:00:00 18.7 30 Este 55 Este 0 1013 3 72
2019-05-25 01:00:00 18.6 13 Nordeste 53 Este 0 1012.6 3.5 69
2019-05-25 00:00:00 22.5 3 Sudoeste 22 Oeste 0 1010 1.7 35
2019-05-24 23:00:00 24.4 11 Oeste 24 Noroeste 0 1010 2 30
2019-05-24 22:00:00 25.3 12 Oeste 29 Oeste 0 1009.1 0.9 30
2019-05-24 21:00:00 26.5 11 Oeste 30 Oeste 0 1008.3 0.1 30
2019-05-24 20:00:00 27.4 21 Oeste 45 Oeste 0 1008 -0.2 30
2019-05-24 19:00:00 28.9 21 Oeste 49 Sudoeste 0 1008.2 -0.4 28
2019-05-24 18:00:00 29.2 23 Oeste 53 Oeste 0 1008.2 -1.2 26
2019-05-24 17:00:00 29.8 23 Oeste 50 Oeste 0 1008.2 -2.1 23
2019-05-24 16:00:00 30 19 Oeste 47 Oeste 0 1008.6 -2.7 20
2019-05-24 15:00:00 29.1 27 Oeste 47 Oeste 0 1009.4 -2 19
2019-05-24 14:00:00 28.1 27 Oeste 47 Oeste 0 1010.3 -1.4 23
2019-05-24 13:00:00 27.4 25 Sudoeste 46 Sudoeste 0 1011.3 -0.7 29
2019-05-24 12:00:00 23.4 10 Sudoeste 24 Sudoeste 0 1011.4 -0.7 48
2019-05-24 11:00:00 21.5 3 Sudeste 8 Sur 0 1011.7 -0.4 45
2019-05-24 10:00:00 19.2 2 Este 5 Sudeste 0 1012 0 45
2019-05-24 09:00:00 17.5 2 Sudoeste 5 Oeste 0 1012.1 -0.1 58
2019-05-24 08:00:00 15.7 0 Calma 4 Sudeste 0 1012.1 -0.4 57
2019-05-24 07:00:00 16 2 Noroeste 4 Norte 0 1012 -1.3 62
2019-05-24 06:00:00 15.9 0 Calma 6 Nordeste 0 1012.2 -1.3 56
2019-05-24 05:00:00 16.7 4 Nordeste 7 Este 0 1012.5 -1.7 61
2019-05-24 04:00:00 16.6 0 Calma 5 Oeste 0 1013.3 -1.4 52
2019-05-24 03:00:00 17.3 0 Calma 6 Sudeste 0 1013.5 -1.6 57
2019-05-24 02:00:00 18.2 0 Calma 8 Nordeste 0 1014.2 -0.7 41
2019-05-24 01:00:00 18.1 4 Nordeste 10 Nordeste 0 1014.7 0.1 50
2019-05-24 00:00:00 18.2 4 Este 7 Este 0 1015.1 0.7 51
2019-05-23 23:00:00 18.5 5 Nordeste 7 Este 0 1014.9 0.5 60
2019-05-23 22:00:00 20.2 3 Sudoeste 13 Oeste 0 1014.6 0 59
2019-05-23 21:00:00 21.7 6 Sudoeste 11 Oeste 0 1014.4 -0.8 57
2019-05-23 20:00:00 24.7 7 Sudoeste 13 Oeste 0 1014.4 -1.1 36
2019-05-23 19:00:00 24.8 7 Sudoeste 13 Sudoeste 0 1014.6 -1.7 47
2019-05-23 18:00:00 25 5 Sudoeste 11 Sudoeste 0 1015.2 -1.6 45
2019-05-23 17:00:00 24.8 5 Sudoeste 10 Sur 0 1015.5 -1.7 49
2019-05-23 16:00:00 25.2 4 Sur 9 Sudoeste 0 1016.3 -0.8 46
2019-05-23 15:00:00 24.3 5 Sudoeste 12 Sudoeste 0 1016.8 -0.3 49
2019-05-23 14:00:00 24.2 6 Sudoeste 12 Sudoeste 0 1017.2 0.3 44
2019-05-23 13:00:00 24.2 6 Sudoeste 11 Sur 0 1017.1 -0.2 42
2019-05-23 12:00:00 23.5 4 Sur 13 Sudeste 0 1017.1 0.2 47
2019-05-23 11:00:00 21.8 4 Sudoeste 8 Sudoeste 0 1016.9 0.4 53
2019-05-23 10:00:00 20.1 5 Sudoeste 12 Oeste 0 1017.3 1.2 56
2019-05-23 09:00:00 18.5 8 Oeste 14 Oeste 0 1016.9 0.8 56
2019-05-23 08:00:00 18.7 4 Sudoeste 12 Nordeste 0 1016.5 0.2 57
2019-05-23 07:00:00 19.5 6 Nordeste 16 Nordeste 0 1016.1 -0.7 35
2019-05-23 06:00:00 19.6 8 Nordeste 20 Nordeste 0 1016.1 -1.3 39
2019-05-23 05:00:00 18.8 9 Nordeste 17 Nordeste 0 1016.3 -1.3 45
2019-05-23 04:00:00 18 8 Nordeste 15 Nordeste 0 1016.8 -0.8 51
2019-05-23 03:00:00 17.2 5 Nordeste 13 Este 0 1017.4 -0.1 60
2019-05-23 02:00:00 16.8 6 Nordeste 13 Nordeste 0 1017.6 0.6 67
2019-05-23 01:00:00 16.6 4 Norte 9 Nordeste 0 1017.6 1.1 73
2019-05-23 00:00:00 16.8 3 Nordeste 8 Este 0 1017.5 1.2 77
2019-05-22 23:00:00 17.4 4 Nordeste 12 Nordeste 0 1017 0.9 77
2019-05-22 22:00:00 18.3 9 Este 14 Este 0 1016.5 0.2 79
2019-05-22 21:00:00 19.4 8 Este 15 Este 0 1016.3 -0.2 73
2019-05-22 20:00:00 20.9 11 Este 17 Este 0 1016.1 -0.6 67
2019-05-22 19:00:00 21.6 9 Este 17 Este 0 1016.3 -0.7 65
2019-05-22 18:00:00 21.5 12 Este 22 Este 0 1016.5 -0.5 65
2019-05-22 17:00:00 22.3 14 Este 21 Este 0 1016.7 -0.3 61
2019-05-22 16:00:00 23.1 9 Este 20 Este 0 1017 -0.2 57
2019-05-22 15:00:00 22.7 14 Este 21 Este 0 1017 -0.3 57
2019-05-22 14:00:00 22.2 15 Este 22 Este 0 1017 -0.2 59
2019-05-22 13:00:00 22.1 14 Este 26 Este 0 1017.2 0.4 60
2019-05-22 12:00:00 21.7 14 Este 21 Este 0 1017.3 0.8 61
2019-05-22 11:00:00 21 10 Este 18 Este 0 1017.2 1.2 64
2019-05-22 10:00:00 20.1 9 Este 13 Este 0 1016.8 1.5 61
2019-05-22 09:00:00 17.4 0 Calma 5 Sur 0 1016.5 1.1 67
2019-05-22 08:00:00 15.9 0 Calma 9 Nordeste 0 1016 0.7 72
2019-05-22 07:00:00 16.4 6 Nordeste 14 Nordeste 0 1015.3 -0.2 65
2019-05-22 06:00:00 15.8 6 Nordeste 13 Nordeste 0 1015.4 0.1 71
2019-05-22 05:00:00 16.4 7 Nordeste 16 Nordeste 0 1015.3 -0.2 69
2019-05-22 04:00:00 17 8 Nordeste 19 Este 0 1015.5 0.2 68
2019-05-22 03:00:00 17.3 7 Nordeste 21 Nordeste 0 1015.3 0.1 70
2019-05-22 02:00:00 17.9 8 Nordeste 17 Nordeste 0 1015.5 1.2 72
2019-05-22 01:00:00 18.2 7 Nordeste 17 Este 0 1015.3 2.3 73
2019-05-22 00:00:00 18.5 9 Nordeste 28 Este 0 1015.2 2.7 72
2019-05-21 23:00:00 19.2 12 Nordeste 33 Este 0 1014.3 2.3 65
2019-05-21 22:00:00 23.9 6 Oeste 26 Oeste 0 1013 1.2 34
2019-05-21 21:00:00 25.7 16 Oeste 32 Oeste 0 1012.5 0.7 30
2019-05-21 20:00:00 28.2 18 Oeste 33 Oeste 0 1012 0.3 25
2019-05-21 19:00:00 29.1 17 Oeste 32 Sudoeste 0 1011.8 -0.3 25
2019-05-21 18:00:00 29.3 20 Sudoeste 38 Oeste 0 1011.8 -0.8 25
2019-05-21 17:00:00 28.7 21 Sudoeste 40 Sudoeste 0 1011.7 -1.3 28
2019-05-21 16:00:00 25.1 12 Sudoeste 32 Sur 0 1012.1 -1.2 43
2019-05-21 15:00:00 24.1 8 Este 23 Este 0 1012.6 -0.8 47
2019-05-21 14:00:00 22.3 14 Este 24 Este 0 1013 -0.6 57
2019-05-21 13:00:00 21.9 12 Este 21 Este 0 1013.3 0 55
2019-05-21 12:00:00 21.4 11 Este 19 Este 0 1013.4 0.5 56
2019-05-21 11:00:00 21.6 9 Este 15 Este 0 1013.6 1.3 46
2019-05-21 10:00:00 19.3 7 Este 12 Este 0 1013.3 1.7 59
2019-05-21 09:00:00 17.8 3 Sudoeste 11 Sudoeste 0 1012.9 1.6 47
2019-05-21 08:00:00 15.8 3 Sudoeste 10 Nordeste 0 1012.3 1.1 55
2019-05-21 07:00:00 15.6 6 Nordeste 10 Nordeste 0 1011.6 0.5 51
2019-05-21 06:00:00 16 3 Oeste 7 Nordeste 0 1011.3 0.2 51
2019-05-21 05:00:00 16.4 3 Norte 8 Nordeste 0 1011.2 -0.2 53
2019-05-21 04:00:00 16.7 3 Oeste 9 Sur 0 1011.1 -0.5 51
2019-05-21 03:00:00 16.9 2 Noroeste 6 Este 0 1011.1 -0.5 48
2019-05-21 02:00:00 17.7 0 Calma 7 Sudoeste 0 1011.4 0.2 47
2019-05-21 01:00:00 18 4 Sudoeste 8 Sudoeste 0 1011.6 1.1 48
2019-05-21 00:00:00 19.2 2 Noroeste 5 Oeste 0 1011.6 1.4 42
2019-05-20 23:00:00 20.9 3 Noroeste 15 Oeste 0 1011.2 1.4 33
2019-05-20 22:00:00 23.1 11 Oeste 33 Oeste 0 1010.5 0.7 25
2019-05-20 21:00:00 25.2 15 Oeste 32 Oeste 0 1010.2 0.4 22
2019-05-20 20:00:00 27.7 19 Oeste 40 Sudoeste 0 1009.8 -0.3 20
2019-05-20 19:00:00 29.1 22 Oeste 42 Sudoeste 0 1009.8 -0.7 19
2019-05-20 18:00:00 29.7 19 Oeste 34 Oeste 0 1009.8 -1.2 21
2019-05-20 17:00:00 29.9 18 Oeste 36 Sudoeste 0 1010.1 -1 23
2019-05-20 16:00:00 29.8 21 Sudoeste 40 Sudoeste 0 1010.5 -0.9 23
2019-05-20 15:00:00 29.1 21 Oeste 41 Oeste 0 1011 -0.5 22
2019-05-20 14:00:00 28.4 22 Sudoeste 41 Oeste 0 1011.1 -0.3 26
2019-05-20 13:00:00 27.5 18 Oeste 36 Sudoeste 0 1011.4 -0.2 27
2019-05-20 12:00:00 26.7 13 Oeste 31 Oeste 0 1011.5 0.3 28
2019-05-20 11:00:00 24.4 13 Sudoeste 29 Sudoeste 0 1011.4 0.4 36
2019-05-20 10:00:00 20 3 Sudeste 7 Sudeste 0 1011.6 1.2 55
2019-05-20 09:00:00 17.6 4 Sudoeste 8 Sudoeste 0 1011.2 1.1 63
2019-05-20 08:00:00 15.8 2 Norte 9 Este 0 1011 0.8 66
2019-05-20 07:00:00 15.5 2 Este 8 Oeste 0 1010.4 -0.2 65
2019-05-20 06:00:00 16 3 Oeste 6 Nordeste 0 1010.1 -0.9 62
2019-05-20 05:00:00 16.5 3 Oeste 7 Sudoeste 0 1010.2 -1.1 60
2019-05-20 04:00:00 17.9 4 Sudeste 9 Oeste 0 1010.6 -1.1 54
2019-05-20 03:00:00 18.7 4 Oeste 10 Nordeste 0 1011 -1.1 49
2019-05-20 02:00:00 19.3 2 Norte 25 Oeste 0 1011.3 -0.9 49
2019-05-20 01:00:00 20.3 10 Oeste 28 Oeste 0 1011.7 -0.2 46
2019-05-20 00:00:00 20.7 11 Oeste 33 Oeste 0 1012.1 0.5 44
2019-05-19 23:00:00 19.4 8 Oeste 54 Oeste 0 1012.2 1.6 53
2019-05-19 22:00:00 19.7 21 Oeste 42 Oeste 0 1011.9 1.3 54
2019-05-19 21:00:00 20.9 15 Sudoeste 44 Oeste 0 1011.6 1.1 48
2019-05-19 20:00:00 23.6 23 Oeste 44 Oeste 0 1010.6 -0.3 37
2019-05-19 19:00:00 25 17 Oeste 45 Sudoeste 0 1010.6 -0.6 30
2019-05-19 18:00:00 26.7 14 Oeste 40 Oeste 0 1010.5 -0.4 24
2019-05-19 17:00:00 27.4 16 Oeste 38 Sudoeste 0 1010.9 -0.2 18
2019-05-19 16:00:00 27.3 18 Oeste 48 Oeste 0 1011.2 -0.1 17
2019-05-19 15:00:00 26.9 23 Oeste 48 Oeste 0 1010.9 -0.8 18
2019-05-19 14:00:00 25.8 24 Oeste 40 Oeste 0 1011.1 -0.8 16
2019-05-19 13:00:00 24.7 24 Oeste 48 Oeste 0 1011.3 -0.9 14
2019-05-19 12:00:00 23.6 19 Oeste 39 Oeste 0 1011.7 0.1 25
2019-05-19 11:00:00 20.6 20 Oeste 41 Sudoeste 0 1011.9 0.5 33
2019-05-19 10:00:00 19.3 12 Oeste 37 Oeste 0 1012.2 1 35
2019-05-19 09:00:00 17.4 14 Oeste 36 Sudoeste 0 1011.6 0.2 35
2019-05-19 08:00:00 16.8 22 Oeste 37 Sudoeste 0 1011.4 -0.1 42
2019-05-19 07:00:00 17.3 15 Oeste 29 Sudoeste 0 1011.2 -0.3 39
2019-05-19 06:00:00 16.8 8 Oeste 22 Oeste 0 1011.4 -0.3 46
2019-05-19 05:00:00 17 12 Sudoeste 22 Sudoeste 0 1011.5 -0.5 50
2019-05-19 04:00:00 17.4 9 Oeste 27 Oeste 0 1011.5 -1 50
2019-05-19 03:00:00 18 9 Oeste 28 Oeste 0 1011.7 -1.3 45
2019-05-19 02:00:00 17.8 16 Oeste 32 Oeste 0 1012 -1.2 50
2019-05-19 01:00:00 17.9 19 Oeste 37 Oeste 0 1012.5 -0.2 50
2019-05-19 00:00:00 17.3 22 Oeste 37 Oeste 0 1013 1.1 52
2019-05-18 23:00:00 17.8 17 Oeste 33 Oeste 0 1013.2 1.9 51
2019-05-18 22:00:00 18.5 22 Oeste 45 Sudoeste 0 1012.7 1.8 48
2019-05-18 21:00:00 19.9 20 Oeste 48 Oeste 0 1011.9 1.3 40
2019-05-18 20:00:00 22 23 Oeste 54 Sudoeste 0 1011.3 0.5 31
2019-05-18 19:00:00 24.2 19 Oeste -- -- 0 1010.9 -0.2 27
2019-05-18 18:00:00 24.3 15 Oeste 33 Noroeste 0 1010.6 -0.5 21
2019-05-18 17:00:00 25 14 Oeste 39 Oeste 0 1010.8 -0.2 18
2019-05-18 16:00:00 24.8 16 Oeste 44 Oeste 0 1011.1 -0.1 17
2019-05-18 15:00:00 24.4 15 Oeste -- -- 0 1011.1 0.2 17
2019-05-18 14:00:00 24.2 -- -- -- -- 0 1011 0.1 19
2019-05-18 13:00:00 23.5 -- -- -- -- 0 1011.2 0.1 16
2019-05-18 12:00:00 21.9 -- -- -- -- 0 1010.9 0.3 28
2019-05-18 11:00:00 20.3 -- -- -- -- 0 1010.9 0.6 33
2019-05-18 10:00:00 19.6 6 Este 20 Oeste 0 1011.1 1.3 33
2019-05-18 09:00:00 17.5 7 Sudoeste 28 Oeste 0 1010.6 1.1 40
2019-05-18 08:00:00 16.6 11 Oeste 28 Oeste 0 1010.3 0.3 41
2019-05-18 07:00:00 15.9 11 Oeste 24 Oeste 0 1009.8 -0.6 50
2019-05-18 06:00:00 16.3 9 Oeste 19 Oeste 0 1009.5 -1.2 54
2019-05-18 05:00:00 16.1 6 Sudoeste 17 Oeste 0 1010 -1.4 56
2019-05-18 04:00:00 16.6 5 Oeste 17 Oeste 0 1010.4 -1.2 53
2019-05-18 03:00:00 17.2 13 Oeste 23 Oeste 0 1010.7 -1.7 54
2019-05-18 02:00:00 17.6 13 Oeste 26 Oeste 0 1011.4 -0.9 53
2019-05-18 01:00:00 18 15 Sudoeste 39 Sudoeste 0 1011.6 0.4 49
2019-05-18 00:00:00 17.7 16 Oeste 33 Oeste 0 1012.4 1.5 52
2019-05-17 23:00:00 17.8 22 Oeste 41 Oeste 0 1012.3 2 53
2019-05-17 22:00:00 19.1 22 Oeste 48 Oeste 0 1011.2 0.8 46
2019-05-17 21:00:00 20.7 24 Oeste 55 Oeste 0 1010.9 0.2 36
2019-05-17 20:00:00 22.8 24 Oeste 53 Sudoeste 0 1010.3 -0.2 32
2019-05-17 19:00:00 26.4 15 Oeste 35 Oeste 0 1010.4 -0.2 20
2019-05-17 18:00:00 26.1 20 Oeste 51 Oeste 0 1010.7 0 16
2019-05-17 17:00:00 26 24 Oeste 50 Oeste 0 1010.5 -0.1 19
2019-05-17 16:00:00 25.5 26 Oeste 45 Oeste 0 1010.6 -0.1 19
2019-05-17 15:00:00 24.7 20 Oeste 47 Oeste 0 1010.7 0.1 22
2019-05-17 14:00:00 24.3 21 Oeste 42 Oeste 0 1010.6 0.3 24
2019-05-17 13:00:00 23 21 Oeste 45 Sudoeste 0 1010.7 0.6 27
2019-05-17 12:00:00 21.5 24 Sudoeste 44 Oeste 0 1010.6 0.8 31
2019-05-17 11:00:00 20.1 18 Oeste 44 Oeste 0 1010.3 0.7 32
2019-05-17 10:00:00 19.2 17 Oeste 35 Oeste 0 1010.1 1.3 32
2019-05-17 09:00:00 17.7 6 Oeste 26 Sudoeste 0 1009.8 1.5 33
2019-05-17 08:00:00 16.6 9 Sudoeste 24 Oeste 0 1009.6 1.5 41
2019-05-17 07:00:00 16.3 12 Oeste 24 Oeste 0 1008.8 0.8 42
2019-05-17 06:00:00 17.3 11 Sudoeste 27 Este 0 1008.3 -0.1 45
2019-05-17 05:00:00 18 8 Sur 25 Sur 0 1008.1 -0.3 48
2019-05-17 04:00:00 19.1 8 Sudoeste 26 Sur 0 1008 -0.7 49
2019-05-17 03:00:00 20.5 9 Sudoeste 22 Sudoeste 0 1008.4 -0.6 45
2019-05-17 02:00:00 21.5 12 Oeste 33 Oeste 0 1008.4 -0.9 42
2019-05-17 01:00:00 20.9 8 Oeste 30 Sudoeste 0 1008.7 0 47
2019-05-17 00:00:00 20.5 14 Oeste 32 Sudoeste 0 1009 1 55